Sinjar, Iraq

3:48 PM AST on February 28, 2015 (GMT +0300)
Kamishly | Change Station
CLOSE
Current Station
Airport
Location: Kamishli,
Elevation: 1493 ft
Nearby Weather Stations

Elev 1493 ft 37.03 °N, 41.20 °E | Updated 48 minutes ago

Mostly Cloudy
Mostly Cloudy
63 °F
Feels Like 63 °F
N
12
Wind Variable Wind from WSW

Today
High -- | Low -- °F
--% Chance of Precip.
Yesterday
High -- | Low -- °F
Precip. -- in
6:45 AM 6:05 PM
Waxing Gibbous, 77% visible
Pressure 29.95 in
Visibility 6.2 miles
Clouds Scattered Clouds 2600 ft
Mostly Cloudy 10000 ft
Dew Point 34 °F
Humidity 34%
Rainfall 0.00 in
Snow Depth Not available.
UV 2 out of 12
Pollen Not available.
Air Quality Not available.
Flu Activity Not available.
METAR OSKL 281200Z 24010KT 9999 SCT026 BKN100 17/01 Q1014

More Conditions Fewer Conditions

Pressure 29.95 in
Visibility 6.2 miles
Clouds Scattered Clouds 2600 ft
Mostly Cloudy 10000 ft
Dew Point 34 °F
Humidity 34%
Rainfall 0.00 in
Snow Depth Not available.
UV 2 out of 12
Pollen Not available.
Air Quality Not available.
Flu Activity Not available.
METAR OSKL 281200Z 24010KT 9999 SCT026 BKN100 17/01 Q1014

More Conditions Fewer Conditions

10-Day Weather Forecast

Almanac

Astronomy

Feb. 28, 2015 Rise Set
Actual Time
Civil Twilight
Nautical Twilight
Astronomical Twilight
Moon
Length of Visible Light
Length of Day
Tomorrow will be .
, % of the Moon is Illuminated

Today's Extremes

Country Highs Country Lows

Community

WunderPhotos

Upload Photos

1,801,000 photos uploaded!

WunderBlogs® & News

Nearby

Air Quality

  Air Quality AQ Index Pollutant
Not available.

Snow Depth

Station Depth Elevation

Earthquake Activity

City Distance Mag. Time & Date
Minimum magnitude displayed is 2.5.

Coastal Water Temperatures

Place Temperature

Nearby Weather Stations